Ana Sayfa
METAR-TAF:

METAR-TAF

Havaalanları :

Iğdır Şehit Bülent Aydın Havalimanı

Iğdır, Türkiye

Enlem: 39-58-36N, Boylam: 43-52-36E, yükseklik: 945 m

Güncel hava durumu gözlemi

Rapor saat 04:50 UTC de 1 saat ve 4 dakika önce yapıldı.
Rüzgar kuzeybatıdan 6 kt
Sıcaklık 26°C
Nem 42%
Basınç 1014 hPa
Görüş mesafesi 10 km veya daha fazla
1500 m altında bulut yok ve kümülonimbus yok

METAR: LTCT 170450Z 31006KT CAVOK 26/12 Q1014

Saat: 08:54 (05:54 UTC)

Tahmin

Rapor saat 04:40 UTC de 1 saat ve 14 dakika önce yapıldı.
Ayın 17'si saat 06 UTC'den ayın 17'si saat 15 UTC'ye kadar geçerli Tahmin
Rüzgar değişken yönden 2 kt
Görüş mesafesi 10 km veya daha fazla
1500 m altında bulut yok ve kümülonimbus yok

TAF: LTCT 170440Z 1706/1715 VRB02KT CAVOK

4.000'den fazla havaalanı için hava durumu gözlemleri ve tahminleri (METAR ve TAF raporları).

Kullanılabilir istasyonlar harita üzerinde sarı ve kırmızı noktalarla gösterilir.

İstasyonun adını görmek için fareyi noktanın üzerinde gezdirin.

Sonrasında hava gözlem ve tahminlerini görmek için tıklayın.

Haritayı değiştirmek için: yaklaştırmak için siyah artı işaretli yeşil düğmeye ve uzaklaştırmak için de eksi işaretli düğmeye hızla tıklayın; bitişik haritalar için yeşil okları kullanın.


METAR-TAF: